Latest Weather Observations for Townsville - Fanning River (Defence)

IDQ60801

Issued at 7:22 pm EST Tuesday 23 October 2018 (issued every 10 minutes, with the page automatically refreshed every 10 minutes)

About weather observations | Map of weather stations | Latest weather observations for QLD | Other Formats
Station Details ID: 033328 Name: TOWNSVILLE- FANNING RIVER (DEFENCE) Lat: -19.78 Lon: 146.50 Height: 325.83 m
Data from the previous 72 hours. | See also: Recent months at Townsville - Fanning River (Defence)
Date/Time
EST
Temp
°C
App
Temp
°C
Dew
Point
°C
Rel
Hum
%
Delta-T
°C
Wind Press
QNH
hPa
Press
MSL
hPa
Rain since
9am
mm
Dir  Spd
km/h
Gust
km/h
Spd
kts
Gust
kts
23/07:00pm 24.9 25.9 19.5 72 3.5 NE 13 20 7 11 1013.7 1011.8 0.0
23/06:30pm 25.7 27.0 19.3 67 4.2 NE 11 20 6 11 1013.1 1011.2 0.0
23/06:00pm 26.9 27.7 19.0 62 5.1 NE 13 24 7 13 1012.7 1010.8 0.0
23/05:30pm 28.6 29.2 18.7 55 6.4 NE 13 24 7 13 1012.3 1010.4 0.0
23/05:00pm 30.1 30.2 17.5 46 8.1 NNE 13 20 7 11 1011.6 1009.7 0.0
23/04:30pm 31.5 31.4 17.0 41 9.3 NE 13 19 7 10 1011.3 1009.4 0.0
23/04:00pm 32.3 32.1 15.7 36 10.5 ENE 11 20 6 11 1010.9 1009.0 0.0
23/03:30pm 32.5 32.3 16.8 39 10.1 E 13 20 7 11 1011.0 1009.1 0.0
23/03:00pm 32.9 32.9 16.3 37 10.6 NE 11 19 6 10 1011.1 1009.2 0.0
23/02:30pm 32.9 33.3 16.3 37 10.6 ENE 9 19 5 10 1011.4 1009.5 0.0
23/02:00pm 33.3 33.4 16.6 36 10.7 NE 11 20 6 11 1011.9 1009.9 0.0
23/01:30pm 32.1 32.5 17.2 41 9.6 ENE 11 22 6 12 1012.3 1010.4 0.0
23/01:00pm 32.2 32.8 17.7 42 9.4 ENE 11 24 6 13 1012.8 1010.9 0.0
23/12:30pm 32.5 33.6 17.9 41 9.5 NNE 9 22 5 12 1013.3 1011.4 0.0
23/12:00pm 31.7 32.6 18.3 45 8.8 E 11 20 6 11 1013.8 1011.9 0.0
23/11:30am 30.6 32.1 18.0 47 8.2 NE 7 13 4 7 1014.2 1012.3 0.0
23/11:00am 30.3 30.8 17.4 46 8.3 ENE 11 20 6 11 1014.7 1012.8 0.0
23/10:30am 29.1 30.2 17.9 50 7.2 NE 9 19 5 10 1015.2 1013.3 0.0
23/10:00am 28.3 29.2 18.4 55 6.4 NNE 11 20 6 11 1015.3 1013.4 0.0
23/09:30am 27.3 28.0 18.9 60 5.5 N 13 20 7 11 1015.6 1013.7 0.0
23/09:00am 25.8 26.8 18.7 65 4.6 N 11 17 6 9 1015.8 1013.9 0.0
23/08:30am 25.4 27.3 19.8 71 3.7 NNE 9 17 5 9 1015.9 1014.0 0.0
23/08:00am 23.9 26.2 19.8 78 2.7 NE 7 15 4 8 1015.8 1013.9 0.0
23/07:30am 23.5 25.8 19.8 80 2.4 NE 7 11 4 6 1015.6 1013.7 0.0
23/07:00am 23.3 25.6 19.9 81 2.2 NE 7 15 4 8 1015.4 1013.5 0.0
23/06:30am 23.3 25.6 19.9 81 2.2 ENE 7 13 4 7 1015.1 1013.2 0.0
23/06:00am 22.6 25.0 19.6 83 1.9 ENE 6 11 3 6 1014.7 1012.8 0.0
23/05:30am 22.0 24.0 19.2 84 1.8 ENE 7 9 4 5 1014.1 1012.2 0.0
23/05:00am 22.6 24.7 19.4 82 2.1 ENE 7 13 4 7 1013.9 1012.0 0.0
23/04:30am 22.8 24.5 19.4 81 2.2 ENE 9 15 5 8 1013.3 1011.4 0.0
23/04:00am 22.6 24.7 19.4 82 2.1 ENE 7 15 4 8 1013.0 1011.1 0.0
23/03:30am 22.5 23.7 19.1 81 2.2 ENE 11 22 6 12 1012.5 1010.6 0.0
23/03:00am 22.4 24.0 19.2 82 2.1 ENE 9 15 5 8 1012.5 1010.6 0.0
23/02:30am 21.9 24.0 18.9 83 1.9 ENE 6 9 3 5 1012.4 1010.5 0.0
23/02:00am 22.1 24.0 18.9 82 2.0 ENE 7 13 4 7 1012.4 1010.5 0.0
23/01:30am 22.5 23.7 19.1 81 2.2 ENE 11 20 6 11 1012.7 1010.8 0.0
23/01:00am 22.5 24.1 19.1 81 2.2 NE 9 15 5 8 1012.8 1010.9 0.0
23/12:30am 22.5 24.7 19.1 81 2.2 NE 6 15 3 8 1013.1 1011.2 0.0
23/12:00am 22.4 24.4 18.8 80 2.3 NE 6 9 3 5 1013.3 1011.4 0.0
 
Date/Time
EST
Temp
°C
App
Temp
°C
Dew
Point
°C
Rel
Hum
%
Delta-T
°C
Wind Press
QNH
hPa
Press
MSL
hPa
Rain since
9am
mm
Dir  Spd
km/h
Gust
km/h
Spd
kts
Gust
kts
22/11:30pm 22.6 24.6 18.8 79 2.4 NE 6 13 3 7 1013.4 1011.5 0.0
22/11:00pm 22.8 24.6 18.8 78 2.6 NE 7 13 4 7 1013.4 1011.5 0.0
22/10:30pm 22.9 24.5 19.1 79 2.4 NNE 9 19 5 10 1013.4 1011.5 0.0
22/10:00pm 22.9 24.7 19.5 81 2.2 NE 9 15 5 8 1013.1 1011.2 0.0
22/09:30pm 23.0 24.7 19.4 80 2.3 NE 9 17 5 9 1013.0 1011.1 0.0
22/09:00pm 23.2 25.3 19.4 79 2.5 ENE 7 19 4 10 1013.0 1011.1 0.0
22/08:30pm 23.6 24.5 19.3 77 2.8 ENE 13 20 7 11 1012.5 1010.6 0.0
22/08:00pm 24.2 25.5 19.3 74 3.2 NNE 11 17 6 9 1012.6 1010.7 0.0
22/07:30pm 24.8 26.5 19.4 72 3.5 NE 9 13 5 7 1012.3 1010.4 0.0
22/07:00pm 25.3 26.8 19.0 68 4.1 NE 9 17 5 9 1011.9 1009.9 0.0
22/06:30pm 25.9 26.4 18.3 63 4.9 ENE 13 19 7 10 1011.2 1009.3 0.0
22/06:00pm 27.0 27.5 18.3 59 5.6 ENE 13 22 7 12 1010.8 1008.9 0.0
22/05:30pm 28.9 29.8 18.4 53 6.8 ENE 11 17 6 9 1010.6 1008.7 0.0
22/05:00pm 30.3 31.1 18.1 48 7.9 NE 11 20 6 11 1010.3 1008.4 0.0
22/04:30pm 31.1 31.5 18.1 46 8.5 NE 13 20 7 11 1010.0 1008.1 0.0
22/04:00pm 32.5 33.2 17.9 41 9.5 NE 11 22 6 12 1010.0 1008.1 0.0
22/03:30pm 32.8 31.9 14.9 34 11.2 NE 13 26 7 14 1010.0 1008.1 0.0
22/03:00pm 33.1 32.3 16.0 35 10.9 ENE 15 26 8 14 1010.2 1008.3 0.0
22/02:30pm 33.1 32.6 16.0 35 10.9 NE 13 24 7 13 1010.4 1008.5 0.0
22/02:00pm 32.9 32.9 17.1 39 10.2 E 13 24 7 13 1010.6 1008.7 0.0
22/01:30pm 32.6 33.6 16.8 38 10.1 NE 7 17 4 9 1011.0 1009.1 0.0
22/01:00pm 32.7 33.7 16.9 38 10.2 NNE 7 15 4 8 1011.5 1009.6 0.0
22/12:30pm 32.2 32.8 16.9 40 9.8 E 9 19 5 10 1012.1 1010.1 0.0
22/12:00pm 32.1 33.0 17.6 42 9.4 NE 9 20 5 11 1012.7 1010.8 0.0
22/11:30am 31.1 32.3 17.4 44 8.8 E 7 19 4 10 1013.3 1011.4 0.0
22/11:00am 30.2 31.2 16.9 44 8.5 NNE 7 15 4 8 1014.0 1012.1 0.0
22/10:30am 29.6 30.4 17.4 47 7.8 N 9 15 5 8 1014.4 1012.5 0.0
22/10:00am 28.2 29.4 17.4 52 6.9 N 7 17 4 9 1014.8 1012.9 0.0
22/09:30am 27.9 29.1 18.3 56 6.2 NNE 9 19 5 10 1015.2 1013.3 0.0
22/09:00am 26.4 27.4 17.7 58 5.5 N 9 20 5 11 1015.3 1013.4 0.0
22/08:30am 25.7 27.6 18.9 66 4.4 NNE 7 17 4 9 1015.2 1013.3 0.0
22/08:00am 24.5 25.9 18.7 70 3.7 NNE 9 17 5 9 1014.8 1012.9 0.0
22/07:30am 23.6 25.7 19.3 77 2.8 N 7 11 4 6 1014.5 1012.6 0.0
22/07:00am 22.5 25.0 19.1 81 2.2 N 4 7 2 4 1014.3 1012.4 0.0
22/06:30am 20.8 24.2 19.3 91 1.0 CALM 0 0 0 0 1013.8 1011.9 0.0
22/06:00am 19.4 22.3 18.2 93 0.8 CALM 0 0 0 0 1013.3 1011.4 0.0
22/05:30am 19.6 22.5 18.3 92 0.8 CALM 0 0 0 0 1012.9 1011.0 0.0
22/05:00am 19.6 22.5 18.1 91 0.9 CALM 0 0 0 0 1012.6 1010.7 0.0
22/04:30am 19.9 22.8 18.2 90 1.1 CALM 0 0 0 0 1012.5 1010.6 0.0
22/04:00am 20.1 23.1 18.4 90 1.1 CALM 0 0 0 0 1012.3 1010.4 0.0
22/03:30am 20.0 22.9 18.3 90 1.1 CALM 0 0 0 0 1012.2 1010.2 0.0
22/03:00am 20.2 23.0 18.0 87 1.4 CALM 0 0 0 0 1012.2 1010.2 0.0
22/02:30am 21.4 23.6 18.4 83 1.9 NNE 4 6 2 3 1012.3 1010.4 0.0
22/02:00am 21.5 23.4 18.5 83 1.9 NE 6 9 3 5 1012.2 1010.2 0.0
22/01:30am 21.1 23.3 18.3 84 1.8 ENE 4 6 2 3 1012.3 1010.4 0.0
22/01:00am 21.5 23.8 18.5 83 1.9 NE 4 7 2 4 1012.5 1010.6 0.0
22/12:30am 21.3 23.2 18.5 84 1.8 ENE 6 9 3 5 1012.6 1010.7 0.0
22/12:00am 21.6 23.3 18.6 83 1.9 ENE 7 11 4 6 1012.8 1010.9 0.0
 
Date/Time
EST
Temp
°C
App
Temp
°C
Dew
Point
°C
Rel
Hum
%
Delta-T
°C
Wind Press
QNH
hPa
Press
MSL
hPa
Rain since
9am
mm
Dir  Spd
km/h
Gust
km/h
Spd
kts
Gust
kts
21/11:30pm 21.7 23.6 18.5 82 2.0 ENE 6 7 3 4 1013.0 1011.1 0.0
21/11:00pm 22.1 23.9 18.7 81 2.2 ENE 7 13 4 7 1013.2 1011.3 0.0
21/10:30pm 22.3 24.1 18.7 80 2.3 NE 7 15 4 8 1013.3 1011.4 0.0
21/10:00pm 22.4 24.1 18.4 78 2.5 ENE 7 9 4 5 1013.4 1011.5 0.0
21/09:30pm 22.8 23.9 18.1 75 3.0 ENE 9 15 5 8 1013.2 1011.3 0.0
21/09:00pm 22.9 24.3 17.8 73 3.2 ENE 7 13 4 7 1013.0 1011.1 0.0
21/08:30pm 23.4 24.4 17.8 71 3.5 ENE 9 13 5 7 1012.9 1011.0 0.0
21/08:00pm 24.1 25.1 17.8 68 4.0 ENE 9 17 5 9 1012.6 1010.7 0.0
21/07:30pm 25.0 25.5 17.5 63 4.7 ENE 11 17 6 9 1012.2 1010.2 0.0
21/07:00pm 25.9 26.2 15.9 54 6.2 ENE 9 15 5 8 1011.9 1009.9 0.0
21/06:30pm 26.8 27.5 16.1 52 6.7 ENE 7 13 4 7 1011.4 1009.5 0.0
21/06:00pm 28.3 27.7 15.6 46 7.9 NE 13 20 7 11 1011.1 1009.2 0.0
21/05:30pm 29.7 28.6 15.4 42 8.9 NE 15 24 8 13 1010.9 1009.0 0.0
21/05:00pm 30.8 29.5 14.8 37 9.9 NE 15 24 8 13 1010.9 1009.0 0.0
21/04:30pm 31.6 31.1 16.0 39 9.9 NE 13 20 7 11 1010.9 1009.0 0.0
21/04:00pm 32.4 32.4 16.3 38 10.3 NE 11 22 6 12 1010.8 1008.9 0.0
21/03:30pm 32.7 32.6 16.1 37 10.5 NE 11 19 6 10 1011.0 1009.1 0.0
21/03:00pm 32.7 33.6 16.5 37 10.4 NNE 7 15 4 8 1011.2 1009.3 0.0
21/02:30pm 32.8 33.6 17.4 39 10.0 NNE 9 17 5 9 1011.5 1009.6 0.0
21/02:00pm 32.3 33.2 16.6 39 10.0 E 7 17 4 9 1012.1 1010.1 0.0
21/01:30pm 32.1 32.9 17.2 41 9.6 ENE 9 19 5 10 1012.6 1010.7 0.0
21/01:00pm 31.8 32.4 17.7 43 9.1 E 11 20 6 11 1013.2 1011.3 0.0
21/12:30pm 31.8 32.5 18.0 43 9.0 NE 11 20 6 11 1014.0 1012.1 0.0
21/12:00pm 30.4 31.8 17.8 46 8.1 NE 7 22 4 12 1014.6 1012.7 0.0
21/11:30am 30.1 31.5 17.9 48 7.9 NNE 7 17 4 9 1015.3 1013.4 0.0
21/11:00am 29.4 30.7 17.6 49 7.6 NE 7 17 4 9 1015.7 1013.8 0.0
21/10:30am 28.9 29.9 17.7 50 7.2 ENE 9 30 5 16 1016.2 1014.3 0.0
21/10:00am 27.8 28.4 17.6 53 6.5 ENE 11 20 6 11 1016.3 1014.4 0.0
21/09:30am 26.9 28.0 17.9 57 5.8 NNE 9 17 5 9 1016.4 1014.5 0.0
21/09:00am 26.2 27.2 17.8 60 5.4 NE 9 17 5 9 1016.5 1014.6 0.0
21/08:30am 25.7 27.4 18.4 64 4.7 ENE 7 15 4 8 1016.3 1014.4 0.0
21/08:00am 24.7 26.4 18.4 68 4.0 NE 7 15 4 8 1016.2 1014.3 0.0
21/07:30am 22.9 24.7 18.2 75 3.0 NE 6 13 3 7 1016.0 1014.1 0.0
21/07:00am 22.4 24.8 18.0 76 2.8 NNE 2 6 1 3 1015.7 1013.8 0.0
21/06:30am 20.6 23.7 18.7 89 1.2 CALM 0 0 0 0 1015.2 1013.3 0.0
21/06:00am 19.6 22.5 18.3 92 0.8 CALM 0 0 0 0 1014.7 1012.8 0.0
21/05:30am 19.2 22.0 17.9 92 0.8 CALM 0 0 0 0 1014.4 1012.5 0.0
21/05:00am 19.6 22.5 18.1 91 0.9 CALM 0 0 0 0 1014.1 1012.2 0.0
21/04:30am 19.8 22.4 17.6 87 1.4 CALM 0 0 0 0 1013.8 1011.9 0.0
21/04:00am 21.1 22.8 18.1 83 1.9 NNE 6 9 3 5 1013.7 1011.8 0.0
21/03:30am 21.0 22.8 18.2 84 1.8 NE 6 9 3 5 1013.6 1011.7 0.0
21/03:00am 21.1 22.9 18.3 84 1.8 NE 6 13 3 7 1013.6 1011.7 0.0
21/02:30am 20.1 22.7 18.4 90 1.1 ENE 2 2 1 1 1013.7 1011.8 0.0
21/02:00am 20.3 22.5 18.4 89 1.2 NE 4 6 2 3 1013.7 1011.8 0.0
21/01:30am 20.3 22.8 18.2 88 1.3 ENE 2 6 1 3 1013.9 1012.0 0.0
21/01:00am 20.9 23.2 18.5 86 1.5 NE 4 9 2 5 1014.2 1012.3 0.0
21/12:30am 20.5 23.1 18.3 87 1.4 ENE 2 4 1 2 1014.5 1012.6 0.0
21/12:00am 21.0 23.0 18.8 87 1.4 E 6 7 3 4 1014.7 1012.8 0.0
 
Date/Time
EST
Temp
°C
App
Temp
°C
Dew
Point
°C
Rel
Hum
%
Delta-T
°C
Wind Press
QNH
hPa
Press
MSL
hPa
Rain since
9am
mm
Dir  Spd
km/h
Gust
km/h
Spd
kts
Gust
kts
20/11:30pm 21.2 22.7 18.9 87 1.5 E 9 15 5 8 1015.1 1013.2 0.0
20/11:00pm 21.4 23.1 18.6 84 1.8 E 7 9 4 5 1015.5 1013.6 0.0
20/10:30pm 21.7 23.0 18.5 82 2.0 E 9 13 5 7 1015.7 1013.8 0.0
20/10:00pm 21.8 23.6 18.4 81 2.2 E 6 9 3 5 1015.8 1013.9 0.0
20/09:30pm 22.3 23.5 18.3 78 2.5 ENE 9 15 5 8 1015.6 1013.7 0.0
20/09:00pm 22.8 24.2 18.6 77 2.7 ENE 9 17 5 9 1015.6 1013.7 0.0
20/08:30pm 23.0 24.4 18.7 77 2.8 NE 9 15 5 8 1015.4 1013.5 0.0
20/08:00pm 23.3 24.8 18.8 76 2.9 NE 9 17 5 9 1015.1 1013.2 0.0
20/07:30pm 23.6 25.0 18.7 74 3.1 NE 9 17 5 9 1014.6 1012.7 0.0

Other Formats:

Comma delimited format used in spreadsheet applications
http://www.bom.gov.au/fwo/IDQ60801/IDQ60801.94273.axf

JavaScript Object Notation format (JSON) in row-major order
http://www.bom.gov.au/fwo/IDQ60801/IDQ60801.94273.json